createdAt,value
2022-10-19T00:00:26.781Z,289
2022-10-19T00:00:55.154Z,290
2022-10-19T00:01:26.979Z,290
2022-10-19T00:01:57.262Z,290
2022-10-19T00:02:28.022Z,290
2022-10-19T00:02:59.012Z,290
2022-10-19T00:03:30.117Z,290
2022-10-19T00:04:03.537Z,290
2022-10-19T00:04:32.176Z,290
2022-10-19T00:05:02.982Z,290
2022-10-19T00:05:34.024Z,289
2022-10-19T00:06:04.892Z,290
2022-10-19T00:06:37.212Z,290
2022-10-19T00:07:07.227Z,290
2022-10-19T00:07:38.183Z,290
2022-10-19T00:08:09.061Z,290
2022-10-19T00:08:40.307Z,289
2022-10-19T00:09:11.220Z,290
2022-10-19T00:09:41.899Z,290
2022-10-19T00:10:12.807Z,290
2022-10-19T00:10:44.105Z,290
2022-10-19T00:11:15.245Z,289
2022-10-19T00:11:47.150Z,289
2022-10-19T00:12:16.868Z,289
2022-10-19T00:13:18.951Z,289
2022-10-19T00:13:50.054Z,289
2022-10-19T00:14:21.124Z,288
2022-10-19T00:14:52.081Z,288
2022-10-19T00:15:26.022Z,288
2022-10-19T00:15:54.064Z,289
2022-10-19T00:16:25.040Z,289
2022-10-19T00:16:57.061Z,289
2022-10-19T00:17:26.953Z,289
2022-10-19T00:17:57.829Z,289
2022-10-19T00:18:29.074Z,289
2022-10-19T00:19:00.251Z,289
2022-10-19T00:19:31.072Z,289
2022-10-19T00:20:01.911Z,289
2022-10-19T00:20:33.126Z,289
2022-10-19T00:21:04.102Z,289
2022-10-19T00:21:34.849Z,289
2022-10-19T00:22:09.113Z,289
2022-10-19T00:22:37.100Z,289
2022-10-19T00:23:08.217Z,289
2022-10-19T00:23:39.013Z,289
2022-10-19T00:24:09.877Z,289
2022-10-19T00:24:41.092Z,289
2022-10-19T00:25:12.045Z,289
2022-10-19T00:25:42.920Z,289
2022-10-19T00:26:14.155Z,289
2022-10-19T00:26:45.143Z,289
2022-10-19T00:27:17.000Z,289
2022-10-19T00:27:47.209Z,289
2022-10-19T00:28:18.268Z,289
2022-10-19T00:28:49.092Z,289
2022-10-19T00:29:19.942Z,289
2022-10-19T00:29:51.099Z,289
2022-10-19T00:30:25.117Z,289
2022-10-19T00:30:53.284Z,288
2022-10-19T00:31:24.173Z,289
2022-10-19T00:31:55.216Z,289
2022-10-19T00:32:27.179Z,289
2022-10-19T00:32:57.232Z,289
2022-10-19T00:33:27.832Z,289
2022-10-19T00:33:58.926Z,289
2022-10-19T00:34:30.088Z,289
2022-10-19T00:35:01.151Z,289
2022-10-19T00:35:32.064Z,288
2022-10-19T00:36:03.092Z,289
2022-10-19T00:36:34.000Z,288
2022-10-19T00:37:04.977Z,289
2022-10-19T00:37:37.320Z,288
2022-10-19T00:38:07.437Z,288
2022-10-19T00:38:38.216Z,288
2022-10-19T00:39:09.021Z,288
2022-10-19T00:39:40.266Z,288
2022-10-19T00:40:11.348Z,288
2022-10-19T00:40:43.274Z,288
2022-10-19T00:41:13.909Z,288
2022-10-19T00:41:44.396Z,288
2022-10-19T00:42:15.457Z,288
2022-10-19T00:42:47.478Z,288
2022-10-19T00:43:17.152Z,288
2022-10-19T00:43:48.000Z,288
2022-10-19T00:44:18.979Z,288
2022-10-19T00:44:50.160Z,288
2022-10-19T00:45:24.157Z,288
2022-10-19T00:45:52.494Z,288
2022-10-19T00:46:23.569Z,288
2022-10-19T00:46:54.086Z,288
2022-10-19T00:47:25.187Z,288
2022-10-19T00:47:57.240Z,288
2022-10-19T00:48:27.401Z,288
2022-10-19T00:49:00.217Z,288
2022-10-19T00:49:57.493Z,288
2022-10-19T00:50:25.947Z,288
2022-10-19T00:51:01.054Z,288
2022-10-19T00:51:33.212Z,288
2022-10-19T00:52:04.198Z,288
2022-10-19T00:52:35.156Z,288
2022-10-19T00:53:07.188Z,288
2022-10-19T00:53:37.145Z,288
2022-10-19T00:54:08.268Z,288
2022-10-19T00:54:39.092Z,288
2022-10-19T00:55:10.251Z,288
2022-10-19T00:55:41.075Z,288
2022-10-19T00:56:11.972Z,288
2022-10-19T00:56:42.869Z,288
2022-10-19T00:57:13.908Z,288
2022-10-19T00:57:45.282Z,288
2022-10-19T00:58:16.920Z,288
2022-10-19T00:58:47.097Z,289
2022-10-19T00:59:18.113Z,288
2022-10-19T00:59:49.085Z,289
2022-10-19T01:00:25.111Z,289
2022-10-19T01:00:50.972Z,289
2022-10-19T01:01:22.118Z,289
2022-10-19T01:01:53.056Z,289
2022-10-19T01:02:23.930Z,289
2022-10-19T01:02:55.035Z,289
2022-10-19T01:03:27.156Z,289
2022-10-19T01:03:57.111Z,289
2022-10-19T01:04:27.983Z,289
2022-10-19T01:04:58.990Z,289
2022-10-19T01:05:30.003Z,289
2022-10-19T01:06:01.152Z,289
2022-10-19T01:06:31.993Z,289
2022-10-19T01:07:02.905Z,289
2022-10-19T01:07:34.397Z,289
2022-10-19T01:08:04.977Z,289
2022-10-19T01:08:37.148Z,289
2022-10-19T01:09:07.145Z,289
2022-10-19T01:09:37.983Z,289
2022-10-19T01:10:09.031Z,288
2022-10-19T01:10:39.935Z,289
2022-10-19T01:11:11.148Z,289
2022-10-19T01:11:42.006Z,289
2022-10-19T01:12:12.885Z,286
2022-10-19T01:12:43.879Z,287
2022-10-19T01:13:14.826Z,288
2022-10-19T01:13:46.968Z,286
2022-10-19T01:14:17.148Z,288
2022-10-19T01:14:47.878Z,288
2022-10-19T01:15:22.097Z,278
2022-10-19T01:15:50.196Z,279
2022-10-19T01:16:21.052Z,286
2022-10-19T01:16:52.045Z,285
2022-10-19T01:17:22.953Z,286
2022-10-19T01:17:54.029Z,287
2022-10-19T01:18:24.933Z,286
2022-10-19T01:18:58.267Z,284
2022-10-19T01:19:27.004Z,279
2022-10-19T01:19:57.972Z,280
2022-10-19T01:20:28.958Z,280
2022-10-19T01:21:00.169Z,283
2022-10-19T01:21:31.188Z,284
2022-10-19T01:22:01.995Z,285
2022-10-19T01:22:32.932Z,287
2022-10-19T01:23:03.796Z,287
2022-10-19T01:23:35.097Z,287
2022-10-19T01:24:07.147Z,287
2022-10-19T01:24:39.843Z,287
2022-10-19T01:25:08.116Z,287
2022-10-19T01:25:39.087Z,287
2022-10-19T01:26:10.186Z,287
2022-10-19T01:26:40.967Z,287
2022-10-19T01:27:11.969Z,287
2022-10-19T01:27:42.927Z,287
2022-10-19T01:28:14.272Z,287
2022-10-19T01:28:45.229Z,287
2022-10-19T01:29:16.883Z,287
2022-10-19T01:29:47.071Z,288
2022-10-19T01:30:20.923Z,288
2022-10-19T01:30:49.208Z,288
2022-10-19T01:31:19.976Z,288
2022-10-19T01:31:50.980Z,288
2022-10-19T01:32:22.035Z,288
2022-10-19T01:32:53.109Z,288
2022-10-19T01:33:24.169Z,288
2022-10-19T01:33:55.043Z,288
2022-10-19T01:36:33.539Z,288
2022-10-19T01:37:01.151Z,288
2022-10-19T01:37:32.256Z,288
2022-10-19T01:38:02.937Z,288
2022-10-19T01:38:33.965Z,288
2022-10-19T01:39:05.053Z,288
2022-10-19T01:39:37.070Z,288
2022-10-19T01:40:07.076Z,288
2022-10-19T01:40:38.178Z,288
2022-10-19T01:41:09.094Z,288
2022-10-19T01:41:40.109Z,288
2022-10-19T01:42:11.205Z,288
2022-10-19T01:42:42.181Z,288
2022-10-19T01:43:12.964Z,288
2022-10-19T01:43:44.124Z,288
2022-10-19T01:44:15.022Z,288
2022-10-19T01:44:46.999Z,288
2022-10-19T01:45:19.800Z,288
2022-10-19T01:45:47.855Z,288
2022-10-19T01:46:19.067Z,288
2022-10-19T01:46:50.102Z,288
2022-10-19T01:47:21.132Z,288
2022-10-19T01:47:52.158Z,288
2022-10-19T01:48:22.928Z,288
2022-10-19T01:48:54.013Z,288
2022-10-19T01:49:25.139Z,288
2022-10-19T01:49:57.144Z,288
2022-10-19T01:50:27.381Z,288
2022-10-19T01:50:58.018Z,288
2022-10-19T01:51:29.261Z,288
2022-10-19T01:52:00.061Z,288
2022-10-19T01:52:31.578Z,288
2022-10-19T01:53:02.092Z,288
2022-10-19T01:53:33.136Z,288
2022-10-19T01:54:04.114Z,288
2022-10-19T01:54:35.284Z,288
2022-10-19T01:55:07.198Z,288
2022-10-19T01:55:37.013Z,288
2022-10-19T01:56:08.292Z,288
2022-10-19T01:56:39.230Z,288
2022-10-19T01:57:10.208Z,288
2022-10-19T01:57:41.255Z,287
2022-10-19T01:58:11.903Z,287
2022-10-19T01:58:42.956Z,287
2022-10-19T01:59:14.047Z,287
2022-10-19T01:59:45.009Z,287
2022-10-19T02:00:19.976Z,287
2022-10-19T02:00:47.309Z,287
2022-10-19T02:01:18.135Z,287
2022-10-19T02:01:49.127Z,287
2022-10-19T02:02:20.281Z,287
2022-10-19T02:02:51.216Z,287
2022-10-19T02:03:22.096Z,287
2022-10-19T02:03:53.137Z,287
2022-10-19T02:04:24.180Z,282
2022-10-19T02:04:55.191Z,283
2022-10-19T02:05:27.109Z,283
2022-10-19T02:05:57.040Z,283
2022-10-19T02:06:28.021Z,278
2022-10-19T02:06:59.138Z,280
2022-10-19T02:07:29.959Z,280
2022-10-19T02:08:00.937Z,282
2022-10-19T02:08:32.024Z,282
2022-10-19T02:09:02.973Z,282
2022-10-19T02:09:34.168Z,282
2022-10-19T02:10:05.267Z,282
2022-10-19T02:10:36.947Z,282
2022-10-19T02:11:07.059Z,284
2022-10-19T02:11:38.130Z,284
2022-10-19T02:12:09.201Z,284
2022-10-19T02:12:40.139Z,284
2022-10-19T02:13:11.092Z,284
2022-10-19T02:13:42.001Z,284
2022-10-19T02:14:13.213Z,292
2022-10-19T02:14:44.082Z,298
2022-10-19T02:15:17.762Z,340
2022-10-19T02:15:47.005Z,332
2022-10-19T02:16:17.149Z,331
2022-10-19T02:16:48.108Z,330
2022-10-19T02:17:19.180Z,330
2022-10-19T02:17:49.841Z,331
2022-10-19T02:18:21.063Z,323
2022-10-19T02:18:52.062Z,320
2022-10-19T02:19:54.179Z,321
2022-10-19T02:20:25.087Z,326
2022-10-19T02:20:57.056Z,327
2022-10-19T02:21:26.868Z,333
2022-10-19T02:21:58.030Z,328
2022-10-19T02:22:28.964Z,331
2022-10-19T02:23:00.029Z,332
2022-10-19T02:23:31.043Z,335
2022-10-19T02:24:02.181Z,335
2022-10-19T02:24:33.154Z,334
2022-10-19T02:25:04.044Z,334
2022-10-19T02:25:35.017Z,334
2022-10-19T02:26:07.217Z,334
2022-10-19T02:26:37.164Z,334
2022-10-19T02:27:08.081Z,334
2022-10-19T02:27:39.209Z,334
2022-10-19T02:28:10.065Z,334
2022-10-19T02:28:41.206Z,335
2022-10-19T02:29:11.944Z,335
2022-10-19T02:29:43.058Z,334
2022-10-19T02:30:16.839Z,334
2022-10-19T02:30:44.892Z,334
2022-10-19T02:31:17.162Z,334
2022-10-19T02:31:47.143Z,334
2022-10-19T02:32:18.161Z,334
2022-10-19T02:32:49.114Z,334
2022-10-19T02:33:20.224Z,334
2022-10-19T02:33:51.119Z,334
2022-10-19T02:34:21.976Z,334
2022-10-19T02:34:53.116Z,334
2022-10-19T02:35:24.227Z,334
2022-10-19T02:35:55.117Z,334
2022-10-19T02:36:27.130Z,334
2022-10-19T02:36:57.058Z,334
2022-10-19T02:37:28.197Z,334
2022-10-19T02:37:59.049Z,334
2022-10-19T02:38:29.930Z,334
2022-10-19T02:39:01.067Z,334
2022-10-19T02:39:32.192Z,334
2022-10-19T02:40:03.197Z,334
2022-10-19T02:40:34.272Z,311
2022-10-19T02:41:05.030Z,300
2022-10-19T02:41:37.115Z,299
2022-10-19T02:42:06.911Z,320
2022-10-19T02:42:37.941Z,327
2022-10-19T02:43:09.215Z,326
2022-10-19T02:43:40.068Z,324
2022-10-19T02:44:10.999Z,326
2022-10-19T02:44:42.005Z,324
2022-10-19T02:45:15.985Z,324
2022-10-19T02:45:44.156Z,324
2022-10-19T02:46:14.945Z,324
2022-10-19T02:46:47.023Z,324
2022-10-19T02:47:17.068Z,324
2022-10-19T02:47:48.162Z,326
2022-10-19T02:48:19.153Z,328
2022-10-19T02:48:49.913Z,329
2022-10-19T02:49:21.188Z,329
2022-10-19T02:49:52.179Z,329
2022-10-19T02:50:23.219Z,329
2022-10-19T02:50:54.276Z,327
2022-10-19T02:51:25.022Z,326
2022-10-19T02:51:57.000Z,326
2022-10-19T02:52:27.048Z,324
2022-10-19T02:52:58.132Z,323
2022-10-19T02:53:29.176Z,324
2022-10-19T02:54:02.667Z,323
2022-10-19T02:54:31.020Z,323
2022-10-19T02:55:01.972Z,323
2022-10-19T02:55:32.981Z,325
2022-10-19T02:56:04.092Z,325
2022-10-19T02:56:34.992Z,303
2022-10-19T02:57:06.956Z,287
2022-10-19T02:57:37.663Z,264
2022-10-19T02:58:08.319Z,267
2022-10-19T02:58:38.960Z,305
2022-10-19T02:59:10.194Z,306
2022-10-19T02:59:41.204Z,267
2022-10-19T03:00:14.680Z,268
2022-10-19T03:00:43.098Z,269
2022-10-19T03:01:14.092Z,267
2022-10-19T03:01:44.992Z,254
2022-10-19T03:02:17.141Z,253
2022-10-19T03:02:47.006Z,275
2022-10-19T03:03:18.028Z,342
2022-10-19T03:03:49.116Z,327
2022-10-19T03:04:20.022Z,336
2022-10-19T03:04:51.203Z,336
2022-10-19T03:05:22.146Z,334
2022-10-19T03:05:52.942Z,334
2022-10-19T03:06:24.269Z,335
2022-10-19T03:06:55.214Z,335
2022-10-19T03:07:27.105Z,336
2022-10-19T03:07:57.066Z,334
2022-10-19T03:08:27.975Z,334
2022-10-19T03:08:59.115Z,334
2022-10-19T03:09:30.029Z,334
2022-10-19T03:10:01.080Z,337
2022-10-19T03:10:32.062Z,336
2022-10-19T03:11:03.185Z,335
2022-10-19T03:11:34.183Z,335
2022-10-19T03:12:05.185Z,335
2022-10-19T03:12:37.146Z,335
2022-10-19T03:13:06.995Z,335
2022-10-19T03:13:38.081Z,337
2022-10-19T03:14:09.171Z,336
2022-10-19T03:14:40.247Z,332
2022-10-19T03:15:13.929Z,331
2022-10-19T03:15:41.950Z,331
2022-10-19T03:16:13.092Z,331
2022-10-19T03:16:44.072Z,331
2022-10-19T03:17:15.133Z,331
2022-10-19T03:17:47.160Z,331
2022-10-19T03:18:17.028Z,331
2022-10-19T03:18:48.275Z,330
2022-10-19T03:19:19.228Z,330
2022-10-19T03:19:50.236Z,330
2022-10-19T03:20:21.131Z,330
2022-10-19T03:20:51.967Z,330
2022-10-19T03:21:23.240Z,330
2022-10-19T03:21:54.235Z,330
2022-10-19T03:22:25.281Z,330
2022-10-19T03:22:57.090Z,330
2022-10-19T03:23:27.090Z,330
2022-10-19T03:23:58.150Z,332
2022-10-19T03:24:29.208Z,336
2022-10-19T03:25:00.118Z,335
2022-10-19T03:25:30.985Z,332
2022-10-19T03:26:02.066Z,332
2022-10-19T03:26:33.005Z,332
2022-10-19T03:27:04.192Z,332
2022-10-19T03:27:35.565Z,332
2022-10-19T03:28:06.940Z,331
2022-10-19T03:28:37.044Z,331
2022-10-19T03:29:08.294Z,331
2022-10-19T03:29:39.323Z,331
2022-10-19T03:30:13.129Z,331
2022-10-19T03:30:41.056Z,331
2022-10-19T03:31:11.830Z,330
2022-10-19T03:31:43.126Z,330
2022-10-19T03:32:14.182Z,330
2022-10-19T03:32:45.180Z,326
2022-10-19T03:33:17.107Z,326
2022-10-19T03:33:47.049Z,326
2022-10-19T03:34:17.964Z,326
2022-10-19T03:34:49.158Z,326
2022-10-19T03:35:19.971Z,326
2022-10-19T03:35:51.004Z,326
2022-10-19T03:36:22.043Z,326
2022-10-19T03:36:53.242Z,326
2022-10-19T03:37:24.315Z,326
2022-10-19T03:37:55.004Z,326
2022-10-19T03:38:27.087Z,326
2022-10-19T03:38:57.125Z,326
2022-10-19T03:39:28.182Z,326
2022-10-19T03:39:59.206Z,326
2022-10-19T03:40:30.079Z,326
2022-10-19T03:41:01.047Z,325
2022-10-19T03:41:32.135Z,325
2022-10-19T03:42:03.147Z,326
2022-10-19T03:42:34.173Z,326
2022-10-19T03:43:05.191Z,325
2022-10-19T03:43:37.009Z,326
2022-10-19T03:44:06.998Z,326
2022-10-19T03:44:38.216Z,326
2022-10-19T03:45:11.811Z,326
2022-10-19T03:45:40.260Z,325
2022-10-19T03:46:11.181Z,325
2022-10-19T03:46:42.107Z,326
2022-10-19T03:47:13.034Z,326
2022-10-19T03:47:44.112Z,326
2022-10-19T03:48:15.099Z,326
2022-10-19T03:48:47.155Z,329
2022-10-19T03:49:17.199Z,328
2022-10-19T03:49:48.157Z,328
2022-10-19T03:50:19.142Z,328
2022-10-19T03:50:50.110Z,328
2022-10-19T03:51:21.178Z,328
2022-10-19T03:51:51.980Z,326
2022-10-19T03:52:23.185Z,309
2022-10-19T03:52:54.086Z,310
2022-10-19T03:53:25.321Z,311
2022-10-19T03:53:57.103Z,307
2022-10-19T03:54:27.644Z,307
2022-10-19T03:54:58.117Z,308
2022-10-19T03:55:29.318Z,308
2022-10-19T03:56:00.136Z,321
2022-10-19T03:56:30.954Z,322
2022-10-19T03:57:02.115Z,322
2022-10-19T03:57:33.252Z,322
2022-10-19T03:58:04.159Z,322
2022-10-19T03:58:35.169Z,322
2022-10-19T03:59:06.899Z,322
2022-10-19T03:59:36.983Z,322
2022-10-19T04:00:11.176Z,322
2022-10-19T04:00:39.029Z,326
2022-10-19T04:01:09.919Z,326
2022-10-19T04:01:41.134Z,343
2022-10-19T04:02:12.136Z,346
2022-10-19T04:02:43.069Z,341
2022-10-19T04:03:14.042Z,340
2022-10-19T04:03:45.072Z,340
2022-10-19T04:04:17.217Z,340
2022-10-19T04:04:47.163Z,340
2022-10-19T04:05:18.044Z,340
2022-10-19T04:05:49.175Z,340
2022-10-19T04:06:22.084Z,340
2022-10-19T04:06:51.117Z,339
2022-10-19T04:07:22.000Z,339
2022-10-19T04:07:53.115Z,339
2022-10-19T04:08:24.222Z,339
2022-10-19T04:08:55.341Z,345
2022-10-19T04:09:27.224Z,341
2022-10-19T04:09:57.115Z,341
2022-10-19T04:10:28.143Z,341
2022-10-19T04:10:59.217Z,341
2022-10-19T04:11:30.249Z,341
2022-10-19T04:12:01.138Z,341
2022-10-19T04:12:31.945Z,341
2022-10-19T04:13:03.003Z,341
2022-10-19T04:13:34.074Z,341
2022-10-19T04:14:05.316Z,341
2022-10-19T04:14:52.601Z,341
2022-10-19T04:15:09.806Z,341
2022-10-19T04:15:38.078Z,341
2022-10-19T04:16:09.233Z,341
2022-10-19T04:16:40.154Z,341
2022-10-19T04:17:10.942Z,341
2022-10-19T04:17:44.599Z,341
2022-10-19T04:18:13.354Z,341
2022-10-19T04:18:44.250Z,341
2022-10-19T04:19:15.191Z,341
2022-10-19T04:19:47.026Z,341
2022-10-19T04:20:17.198Z,341
2022-10-19T04:20:48.042Z,341
2022-10-19T04:21:19.214Z,341
2022-10-19T04:21:50.045Z,341
2022-10-19T04:22:21.145Z,341
2022-10-19T04:22:51.874Z,341
2022-10-19T04:23:23.178Z,341
2022-10-19T04:23:54.409Z,341
2022-10-19T04:24:25.367Z,341
2022-10-19T04:24:57.031Z,341
2022-10-19T04:25:27.402Z,342
2022-10-19T04:25:58.125Z,342
2022-10-19T04:26:28.938Z,342
2022-10-19T04:27:00.007Z,342
2022-10-19T04:27:31.246Z,342
2022-10-19T04:28:02.187Z,342
2022-10-19T04:28:33.045Z,342
2022-10-19T04:29:04.146Z,342
2022-10-19T04:29:35.159Z,342
2022-10-19T04:30:09.851Z,342
2022-10-19T04:30:37.089Z,342
2022-10-19T04:31:08.269Z,342
2022-10-19T04:31:39.056Z,342
2022-10-19T04:32:10.161Z,342
2022-10-19T04:32:41.146Z,343
2022-10-19T04:33:12.139Z,343
2022-10-19T04:33:43.231Z,343
2022-10-19T04:34:14.270Z,343
2022-10-19T04:34:45.115Z,343
2022-10-19T04:35:17.051Z,343
2022-10-19T04:35:47.363Z,343
2022-10-19T04:36:17.966Z,343
2022-10-19T04:36:49.159Z,343
2022-10-19T04:37:20.166Z,343
2022-10-19T04:37:51.130Z,343
2022-10-19T04:38:22.100Z,343
2022-10-19T04:38:53.063Z,343
2022-10-19T04:39:24.327Z,343
2022-10-19T04:39:55.232Z,343
2022-10-19T04:40:27.283Z,353
2022-10-19T04:40:57.301Z,345
2022-10-19T04:41:28.070Z,344
2022-10-19T04:41:59.167Z,343
2022-10-19T04:42:30.045Z,343
2022-10-19T04:43:01.203Z,343
2022-10-19T04:43:32.104Z,343
2022-10-19T04:44:02.835Z,343
2022-10-19T04:44:34.264Z,345
2022-10-19T04:45:08.001Z,344
2022-10-19T04:45:37.155Z,9
2022-10-19T04:46:07.124Z,1
2022-10-19T04:46:38.128Z,346
2022-10-19T04:47:09.194Z,346
2022-10-19T04:47:40.296Z,345
2022-10-19T04:48:14.520Z,345
2022-10-19T04:48:42.088Z,350
2022-10-19T04:49:16.400Z,348
2022-10-19T04:49:44.114Z,347
2022-10-19T04:50:15.202Z,347
2022-10-19T04:50:46.976Z,347
2022-10-19T04:51:17.146Z,347
2022-10-19T04:51:47.856Z,347
2022-10-19T04:52:19.027Z,347
2022-10-19T04:52:50.098Z,347
2022-10-19T04:53:21.125Z,347
2022-10-19T04:53:53.442Z,346
2022-10-19T04:54:23.275Z,347
2022-10-19T04:54:54.187Z,347
2022-10-19T04:55:25.205Z,347
2022-10-19T04:55:57.174Z,347
2022-10-19T04:56:27.093Z,347
2022-10-19T04:56:58.141Z,347
2022-10-19T04:57:29.273Z,349
2022-10-19T04:57:59.984Z,348
2022-10-19T04:58:31.261Z,348
2022-10-19T04:59:02.086Z,348
2022-10-19T04:59:32.942Z,348
2022-10-19T05:00:07.043Z,348
2022-10-19T05:00:35.158Z,348
2022-10-19T05:01:07.199Z,350
2022-10-19T05:01:37.078Z,355
2022-10-19T05:02:08.285Z,349
2022-10-19T05:02:38.980Z,349
2022-10-19T05:03:10.336Z,349
2022-10-19T05:03:41.209Z,348
2022-10-19T05:04:12.248Z,349
2022-10-19T05:04:45.138Z,349
2022-10-19T05:05:13.981Z,349
2022-10-19T05:05:45.085Z,349
2022-10-19T05:06:17.014Z,351
2022-10-19T05:06:47.209Z,350
2022-10-19T05:07:18.042Z,350
2022-10-19T05:07:49.129Z,350
2022-10-19T05:08:20.165Z,350
2022-10-19T05:08:51.039Z,350
2022-10-19T05:09:22.277Z,351
2022-10-19T05:09:53.177Z,350
2022-10-19T05:10:24.019Z,348
2022-10-19T05:10:55.245Z,357
2022-10-19T05:11:27.177Z,345
2022-10-19T05:11:57.274Z,342
2022-10-19T05:12:27.985Z,341
2022-10-19T05:12:59.067Z,343
2022-10-19T05:13:30.258Z,342
2022-10-19T05:14:01.187Z,344
2022-10-19T05:14:31.971Z,344
2022-10-19T05:15:05.808Z,342
2022-10-19T05:15:34.158Z,342
2022-10-19T05:16:05.312Z,340
2022-10-19T05:16:37.338Z,340
2022-10-19T05:17:07.084Z,339
2022-10-19T05:17:38.206Z,337
2022-10-19T05:18:09.250Z,341
2022-10-19T05:18:40.162Z,342
2022-10-19T05:19:11.281Z,343
2022-10-19T05:19:42.143Z,344
2022-10-19T05:20:12.989Z,342
2022-10-19T05:20:44.026Z,344
2022-10-19T05:21:15.119Z,346
2022-10-19T05:21:47.187Z,343
2022-10-19T05:22:17.047Z,339
2022-10-19T05:22:48.007Z,339
2022-10-19T05:23:19.248Z,342
2022-10-19T05:23:50.190Z,343
2022-10-19T05:24:21.174Z,340
2022-10-19T05:24:54.575Z,350
2022-10-19T05:25:23.170Z,347
2022-10-19T05:25:54.176Z,350
2022-10-19T05:26:25.374Z,351
2022-10-19T05:26:57.133Z,349
2022-10-19T05:27:27.178Z,348
2022-10-19T05:27:58.120Z,348
2022-10-19T05:28:29.107Z,348
2022-10-19T05:29:00.140Z,348
2022-10-19T05:29:31.270Z,348
2022-10-19T05:30:05.023Z,348
2022-10-19T05:30:33.135Z,347
2022-10-19T05:31:04.274Z,347
2022-10-19T05:31:35.036Z,347
2022-10-19T05:32:07.138Z,347
2022-10-19T05:32:37.082Z,347
2022-10-19T05:33:08.272Z,347
2022-10-19T05:33:39.238Z,347
2022-10-19T05:34:10.091Z,347
2022-10-19T05:34:41.343Z,347
2022-10-19T05:35:12.051Z,347
2022-10-19T05:35:43.134Z,347
2022-10-19T05:36:14.024Z,347
2022-10-19T05:36:45.076Z,347
2022-10-19T05:37:17.082Z,347
2022-10-19T05:37:47.258Z,347
2022-10-19T05:38:18.102Z,347
2022-10-19T05:38:49.019Z,347
2022-10-19T05:39:21.514Z,347
2022-10-19T05:39:51.224Z,347
2022-10-19T05:40:22.227Z,347
2022-10-19T05:40:53.808Z,347
2022-10-19T05:41:24.159Z,347
2022-10-19T05:41:55.206Z,347
2022-10-19T05:42:27.231Z,347
2022-10-19T05:42:57.293Z,347
2022-10-19T05:43:28.008Z,347
2022-10-19T05:43:59.006Z,347
2022-10-19T05:44:30.263Z,347
2022-10-19T05:45:03.955Z,347
2022-10-19T05:45:32.209Z,347
2022-10-19T05:46:02.998Z,347
2022-10-19T05:46:34.107Z,347
2022-10-19T05:47:05.006Z,347
2022-10-19T05:47:37.337Z,347
2022-10-19T05:48:07.178Z,347
2022-10-19T05:48:38.037Z,347
2022-10-19T05:49:09.156Z,347
2022-10-19T05:49:40.113Z,347
2022-10-19T05:50:11.163Z,347
2022-10-19T05:50:42.252Z,347
2022-10-19T05:51:13.596Z,347
2022-10-19T05:51:44.208Z,347
2022-10-19T05:52:15.590Z,347
2022-10-19T05:52:47.395Z,347
2022-10-19T05:53:16.979Z,347
2022-10-19T05:53:48.126Z,347
2022-10-19T05:54:20.988Z,347
2022-10-19T05:54:50.530Z,347
2022-10-19T05:55:21.519Z,347
2022-10-19T05:55:52.249Z,347
2022-10-19T05:56:23.436Z,347
2022-10-19T05:56:54.507Z,347
2022-10-19T05:57:25.519Z,347
2022-10-19T05:57:57.555Z,347
2022-10-19T05:58:27.540Z,347
2022-10-19T05:58:58.336Z,347
2022-10-19T05:59:29.328Z,353
2022-10-19T06:00:03.278Z,350
2022-10-19T06:00:31.259Z,347
2022-10-19T06:01:02.438Z,347
2022-10-19T06:01:33.269Z,347
2022-10-19T06:02:04.557Z,347
2022-10-19T06:02:35.380Z,347
2022-10-19T06:03:07.271Z,347
2022-10-19T06:03:37.407Z,347
2022-10-19T06:04:08.558Z,347
2022-10-19T06:04:39.478Z,354
2022-10-19T06:05:10.257Z,351
2022-10-19T06:05:41.371Z,351
2022-10-19T06:06:12.482Z,351
2022-10-19T06:06:43.404Z,351
2022-10-19T06:07:14.393Z,351
2022-10-19T06:07:45.206Z,351
2022-10-19T06:08:17.357Z,351
2022-10-19T06:08:47.431Z,350
2022-10-19T06:09:18.217Z,349
2022-10-19T06:09:49.163Z,349
2022-10-19T06:10:20.458Z,349
2022-10-19T06:10:51.472Z,349
2022-10-19T06:11:22.589Z,351
2022-10-19T06:11:53.490Z,351
2022-10-19T06:12:25.209Z,350
2022-10-19T06:12:55.365Z,350
2022-10-19T06:13:27.126Z,350
2022-10-19T06:13:57.366Z,350
2022-10-19T06:14:28.470Z,350
2022-10-19T06:14:59.284Z,350
2022-10-19T06:15:33.182Z,350
2022-10-19T06:16:01.490Z,350
2022-10-19T06:16:32.429Z,350
2022-10-19T06:17:03.206Z,349
2022-10-19T06:17:34.608Z,349
2022-10-19T06:18:05.439Z,349
2022-10-19T06:18:37.412Z,349
2022-10-19T06:19:07.562Z,349
2022-10-19T06:19:38.423Z,349
2022-10-19T06:20:09.450Z,349
2022-10-19T06:20:40.397Z,349
2022-10-19T06:21:11.791Z,349
2022-10-19T06:21:45.644Z,349
2022-10-19T06:22:13.481Z,349
2022-10-19T06:22:44.243Z,349
2022-10-19T06:23:15.458Z,349
2022-10-19T06:23:47.429Z,349
2022-10-19T06:24:17.414Z,349
2022-10-19T06:24:48.370Z,349
2022-10-19T06:25:20.452Z,349
2022-10-19T06:25:50.527Z,349
2022-10-19T06:26:21.235Z,349
2022-10-19T06:26:52.555Z,349
2022-10-19T06:27:23.419Z,349
2022-10-19T06:27:54.588Z,349
2022-10-19T06:28:25.462Z,349
2022-10-19T06:28:57.299Z,349
2022-10-19T06:29:27.562Z,349
2022-10-19T06:29:58.421Z,349
2022-10-19T06:30:32.113Z,349
2022-10-19T06:31:00.506Z,349
2022-10-19T06:31:31.181Z,349
2022-10-19T06:32:02.438Z,349
2022-10-19T06:32:33.346Z,349
2022-10-19T06:33:04.511Z,349
2022-10-19T06:33:35.397Z,349
2022-10-19T06:34:07.484Z,349
2022-10-19T06:34:37.514Z,349
2022-10-19T06:35:08.622Z,350
2022-10-19T06:35:39.368Z,349
2022-10-19T06:36:10.381Z,349
2022-10-19T06:36:41.477Z,349
2022-10-19T06:37:12.443Z,350
2022-10-19T06:37:43.533Z,350
2022-10-19T06:38:14.300Z,350
2022-10-19T06:38:45.372Z,349
2022-10-19T06:39:17.278Z,349
2022-10-19T06:39:47.335Z,349
2022-10-19T06:40:18.381Z,350
2022-10-19T06:40:49.545Z,349
2022-10-19T06:41:20.447Z,350
2022-10-19T06:41:51.470Z,349
2022-10-19T06:42:22.405Z,349
2022-10-19T06:42:53.179Z,349
2022-10-19T06:43:24.374Z,350
2022-10-19T06:43:55.359Z,351
2022-10-19T06:44:27.390Z,350
2022-10-19T06:44:57.570Z,350
2022-10-19T06:45:35.550Z,350
2022-10-19T06:45:59.179Z,348
2022-10-19T06:46:30.433Z,348
2022-10-19T06:47:01.263Z,347
2022-10-19T06:47:32.681Z,348
2022-10-19T06:48:06.683Z,346
2022-10-19T06:48:34.548Z,346
2022-10-19T06:49:05.406Z,346
2022-10-19T06:49:37.371Z,346
2022-10-19T06:50:07.195Z,346
2022-10-19T06:50:38.335Z,346
2022-10-19T06:51:09.507Z,346
2022-10-19T06:51:40.449Z,346
2022-10-19T06:52:11.254Z,345
2022-10-19T06:52:42.372Z,345
2022-10-19T06:53:13.443Z,345
2022-10-19T06:53:44.478Z,346
2022-10-19T06:54:15.438Z,345
2022-10-19T06:54:47.111Z,345
2022-10-19T06:55:17.328Z,345
2022-10-19T06:55:48.387Z,345
2022-10-19T06:56:19.483Z,345
2022-10-19T06:57:21.482Z,345
2022-10-19T06:57:52.359Z,345
2022-10-19T06:58:23.172Z,345
2022-10-19T06:58:54.479Z,345
2022-10-19T06:59:25.362Z,345
2022-10-19T06:59:57.409Z,345
2022-10-19T07:00:30.308Z,345
2022-10-19T07:00:58.440Z,346
2022-10-19T07:01:29.294Z,345
2022-10-19T07:02:00.367Z,345
2022-10-19T07:02:31.183Z,345
2022-10-19T07:03:02.245Z,345
2022-10-19T07:03:33.443Z,347
2022-10-19T07:04:04.385Z,349
2022-10-19T07:04:35.511Z,350
2022-10-19T07:05:07.343Z,348
2022-10-19T07:05:37.334Z,347
2022-10-19T07:06:08.274Z,347
2022-10-19T07:06:39.167Z,347
2022-10-19T07:07:10.356Z,348
2022-10-19T07:07:41.632Z,348
2022-10-19T07:08:12.391Z,348
2022-10-19T07:08:43.328Z,348
2022-10-19T07:09:14.316Z,348
2022-10-19T07:09:45.495Z,348
2022-10-19T07:10:17.295Z,347
2022-10-19T07:10:47.247Z,347
2022-10-19T07:11:18.396Z,347